Terminal Aerodrome Forecast
Issued by NWS Charleston, WV

Current Version | Previous Version | Graphics & Text | Print | Product List | Glossary On
Versions: 1 2 3 4 5 6 7 8 9 10 11 12 13 14 15 16 17 18 19 20 21 22 23 24
000
FTUS41 KRLX 222337
TAFPKB
TAF
KPKB 222337Z 2300/2324 21007KT P6SM OVC090
     FM230200 20008KT P6SM SHRA OVC035
      TEMPO 2303/2306 4SM SHRA OVC030
     FM230700 18008KT P6SM OVC015
     FM231400 22009KT P6SM SHRA OVC030
     FM231900 22012G18KT 3SM SHRA VCTS OVC025CB=

USA.gov is the U.S. government's official web portal to all federal, state and local government web resources and services.